createdAt,value
2019-06-07T00:02:16.431Z,9.10
2019-06-07T00:04:46.848Z,9.58
2019-06-07T00:07:17.848Z,9.05
2019-06-07T00:09:47.072Z,9.58
2019-06-07T00:12:17.623Z,8.78
2019-06-07T00:14:46.690Z,9.28
2019-06-07T00:17:17.630Z,8.93
2019-06-07T00:19:48.326Z,9.30
2019-06-07T00:22:30.045Z,9.75
2019-06-07T00:24:48.582Z,9.03
2019-06-07T00:27:20.629Z,9.18
2019-06-07T00:29:48.740Z,9.50
2019-06-07T00:34:47.906Z,10.30
2019-06-07T00:37:19.761Z,10.38
2019-06-07T00:39:59.457Z,10.25
2019-06-07T00:42:20.644Z,10.28
2019-06-07T00:44:49.389Z,11.20
2019-06-07T00:47:24.944Z,10.20
2019-06-07T00:49:51.779Z,10.45
2019-06-07T00:53:11.860Z,10.05
2019-06-07T00:54:53.672Z,11.40
2019-06-07T00:57:24.453Z,10.47
2019-06-07T00:59:55.046Z,11.70
2019-06-07T01:02:29.020Z,10.88
2019-06-07T01:04:55.300Z,10.45
2019-06-07T01:07:24.612Z,11.40
2019-06-07T01:12:24.591Z,10.32
2019-06-07T01:14:53.390Z,10.82
2019-06-07T01:17:40.770Z,10.75
2019-06-07T01:22:28.895Z,11.25
2019-06-07T01:25:00.585Z,11.10
2019-06-07T01:27:32.551Z,12.00
2019-06-07T01:30:01.432Z,12.98
2019-06-07T01:32:31.833Z,12.28
2019-06-07T01:35:01.017Z,11.50
2019-06-07T01:37:30.464Z,10.70
2019-06-07T01:40:00.582Z,10.72
2019-06-07T01:42:31.021Z,11.00
2019-06-07T01:45:00.032Z,11.75
2019-06-07T01:47:31.956Z,10.75
2019-06-07T01:49:59.911Z,11.25
2019-06-07T01:52:29.735Z,11.12
2019-06-07T01:54:59.236Z,11.93
2019-06-07T01:57:45.633Z,11.08
2019-06-07T02:00:02.364Z,11.83
2019-06-07T02:02:33.730Z,12.33
2019-06-07T02:10:02.458Z,13.08
2019-06-07T02:12:42.322Z,12.82
2019-06-07T02:15:05.023Z,12.78
2019-06-07T02:17:33.958Z,12.40
2019-06-07T02:20:03.851Z,13.68
2019-06-07T02:22:34.581Z,13.28
2019-06-07T02:25:34.992Z,11.93
2019-06-07T02:27:35.034Z,13.13
2019-06-07T02:30:36.720Z,13.48
2019-06-07T02:32:38.467Z,13.25
2019-06-07T02:35:08.406Z,13.28
2019-06-07T02:37:37.739Z,12.90
2019-06-07T02:40:08.945Z,13.78
2019-06-07T02:42:42.098Z,13.85
2019-06-07T02:45:10.806Z,13.18
2019-06-07T02:47:40.741Z,11.93
2019-06-07T02:50:10.954Z,13.03
2019-06-07T02:52:41.281Z,12.20
2019-06-07T02:55:12.705Z,12.95
2019-06-07T03:01:00.772Z,12.35
2019-06-07T03:03:05.407Z,12.13
2019-06-07T03:05:38.754Z,12.25
2019-06-07T03:08:06.537Z,12.55
2019-06-07T03:13:09.791Z,12.80
2019-06-07T03:15:49.666Z,13.37
2019-06-07T03:18:32.194Z,12.40
2019-06-07T03:21:05.392Z,13.35
2019-06-07T03:25:09.581Z,13.22
2019-06-07T03:27:48.261Z,13.13
2019-06-07T03:30:36.175Z,13.80
2019-06-07T03:32:47.223Z,13.55
2019-06-07T03:35:11.571Z,13.43
2019-06-07T03:37:42.832Z,12.80
2019-06-07T03:40:11.633Z,12.98
2019-06-07T03:42:40.531Z,13.30
2019-06-07T03:45:09.566Z,13.32
2019-06-07T03:52:39.113Z,13.60
2019-06-07T03:55:07.697Z,14.53
2019-06-07T04:00:07.070Z,13.50
2019-06-07T04:02:40.815Z,13.58
2019-06-07T04:05:07.416Z,14.30
2019-06-07T04:07:43.360Z,13.15
2019-06-07T04:10:08.717Z,13.75
2019-06-07T04:20:07.065Z,12.15
2019-06-07T04:22:42.035Z,13.20
2019-06-07T04:25:10.481Z,13.45
2019-06-07T04:27:40.952Z,12.35
2019-06-07T04:30:13.921Z,12.90
2019-06-07T04:32:44.828Z,11.38
2019-06-07T04:37:44.417Z,9.73
2019-06-07T04:40:15.513Z,8.20
2019-06-07T04:42:46.059Z,7.87
2019-06-07T04:45:33.055Z,7.40
2019-06-07T04:47:49.764Z,8.20
2019-06-07T04:52:47.741Z,7.20
2019-06-07T04:57:45.694Z,7.42
2019-06-07T05:02:50.432Z,6.80
2019-06-07T05:05:19.438Z,7.00
2019-06-07T05:07:48.439Z,6.45
2019-06-07T05:10:17.561Z,6.80
2019-06-07T05:12:46.730Z,6.10
2019-06-07T05:17:45.700Z,6.50
2019-06-07T05:20:16.135Z,6.00
2019-06-07T05:22:48.151Z,5.72
2019-06-07T05:25:17.905Z,6.97
2019-06-07T05:27:47.709Z,7.30
2019-06-07T05:33:11.127Z,6.42
2019-06-07T05:35:43.295Z,5.33
2019-06-07T05:38:11.411Z,5.72
2019-06-07T05:40:43.875Z,6.10
2019-06-07T05:43:35.123Z,5.83
2019-06-07T05:46:04.426Z,6.12
2019-06-07T05:48:34.178Z,6.17
2019-06-07T05:51:03.718Z,5.22
2019-06-07T05:56:02.134Z,5.47
2019-06-07T05:58:31.405Z,6.55
2019-06-07T06:01:41.109Z,5.10
2019-06-07T06:03:31.045Z,5.58
2019-06-07T06:06:00.086Z,5.60
2019-06-07T06:08:29.697Z,5.90
2019-06-07T06:10:58.814Z,4.97
2019-06-07T06:13:27.919Z,4.95
2019-06-07T06:16:02.178Z,5.85
2019-06-07T06:21:15.521Z,4.58
2019-06-07T06:23:26.731Z,4.53
2019-06-07T06:28:25.726Z,3.90
2019-06-07T06:33:33.445Z,4.28
2019-06-07T06:38:22.591Z,4.10
2019-06-07T06:41:05.256Z,4.12
2019-06-07T06:43:22.740Z,3.58
2019-06-07T06:48:20.296Z,4.28
2019-06-07T06:50:52.337Z,4.05
2019-06-07T06:53:20.129Z,3.00
2019-06-07T06:55:51.237Z,3.37
2019-06-07T06:58:20.576Z,2.92
2019-06-07T07:01:05.291Z,3.85
2019-06-07T07:05:56.291Z,3.90
2019-06-07T07:08:25.567Z,3.70
2019-06-07T07:10:55.390Z,2.98
2019-06-07T07:13:24.573Z,3.08
2019-06-07T07:15:57.781Z,3.30
2019-06-07T07:18:24.940Z,3.85
2019-06-07T07:20:57.273Z,4.83
2019-06-07T07:23:25.088Z,3.22
2019-06-07T07:25:59.291Z,3.27
2019-06-07T07:28:25.049Z,3.98
2019-06-07T07:30:57.143Z,3.25
2019-06-07T07:34:19.988Z,3.08
2019-06-07T07:36:35.150Z,3.20
2019-06-07T07:41:14.163Z,4.00
2019-06-07T07:43:30.114Z,3.72
2019-06-07T07:46:06.105Z,3.42
2019-06-07T07:48:33.522Z,3.47
2019-06-07T07:51:03.331Z,2.70
2019-06-07T07:56:03.089Z,3.70
2019-06-07T07:58:34.936Z,3.30
2019-06-07T08:01:10.038Z,3.30
2019-06-07T08:03:35.523Z,3.17
2019-06-07T08:06:04.724Z,3.10
2019-06-07T08:11:02.596Z,2.92
2019-06-07T08:13:32.303Z,3.40
2019-06-07T08:16:11.221Z,3.00
2019-06-07T08:18:33.498Z,2.25
2019-06-07T08:21:21.507Z,2.47
2019-06-07T08:26:04.515Z,2.52
2019-06-07T08:28:33.703Z,2.62
2019-06-07T08:33:32.696Z,2.25
2019-06-07T08:38:46.892Z,3.15
2019-06-07T08:41:11.381Z,3.20
2019-06-07T08:43:34.396Z,2.95
2019-06-07T08:46:07.463Z,2.55
2019-06-07T08:48:34.683Z,2.85
2019-06-07T08:53:35.572Z,2.65
2019-06-07T08:58:37.029Z,3.35
2019-06-07T09:01:08.664Z,2.52
2019-06-07T09:03:37.076Z,2.47
2019-06-07T09:06:41.093Z,3.50
2019-06-07T09:08:37.743Z,2.77
2019-06-07T09:13:37.113Z,2.87
2019-06-07T09:16:08.924Z,3.47
2019-06-07T09:18:43.662Z,2.33
2019-06-07T09:21:09.927Z,2.95
2019-06-07T09:23:39.150Z,2.30
2019-06-07T09:26:16.640Z,3.12
2019-06-07T09:28:40.982Z,2.60
2019-06-07T09:32:05.896Z,2.40
2019-06-07T09:34:35.297Z,2.90
2019-06-07T09:37:54.199Z,2.47
2019-06-07T09:39:40.457Z,2.70
2019-06-07T09:42:12.720Z,2.65
2019-06-07T09:44:42.022Z,3.00
2019-06-07T09:47:30.667Z,2.92
2019-06-07T09:49:42.832Z,3.70
2019-06-07T09:52:12.534Z,3.70
2019-06-07T09:55:04.387Z,3.90
2019-06-07T09:57:17.502Z,3.45
2019-06-07T09:59:44.846Z,3.77
2019-06-07T10:02:15.570Z,2.70
2019-06-07T10:07:30.684Z,2.80
2019-06-07T10:12:20.248Z,2.60
2019-06-07T10:14:49.585Z,2.62
2019-06-07T10:17:19.868Z,3.30
2019-06-07T10:19:49.609Z,3.00
2019-06-07T10:22:23.513Z,3.10
2019-06-07T10:24:52.874Z,2.50
2019-06-07T10:27:23.435Z,2.92
2019-06-07T10:29:52.671Z,3.00
2019-06-07T10:32:23.092Z,2.95
2019-06-07T10:34:53.328Z,2.60
2019-06-07T10:37:22.584Z,2.80
2019-06-07T10:39:51.812Z,3.00
2019-06-07T10:42:21.592Z,2.70
2019-06-07T10:44:50.984Z,3.10
2019-06-07T10:48:11.780Z,3.47
2019-06-07T10:50:41.504Z,3.50
2019-06-07T10:53:12.595Z,3.00
2019-06-07T10:55:41.998Z,4.08
2019-06-07T10:58:13.184Z,3.80
2019-06-07T11:00:43.338Z,3.42
2019-06-07T11:03:14.219Z,2.58
2019-06-07T11:05:44.016Z,3.20
2019-06-07T11:08:14.913Z,2.92
2019-06-07T11:10:44.525Z,3.80
2019-06-07T11:13:14.470Z,4.00
2019-06-07T11:15:45.142Z,3.17
2019-06-07T11:18:15.026Z,3.40
2019-06-07T11:20:45.612Z,3.42
2019-06-07T11:25:46.701Z,3.45
2019-06-07T11:28:16.066Z,4.10
2019-06-07T11:30:46.978Z,3.35
2019-06-07T11:33:16.844Z,3.65
2019-06-07T11:35:51.650Z,3.62
2019-06-07T11:38:21.500Z,2.55
2019-06-07T11:43:21.101Z,3.50
2019-06-07T11:45:53.274Z,5.00
2019-06-07T11:48:23.996Z,3.50
2019-06-07T11:50:54.321Z,3.45
2019-06-07T11:53:24.008Z,4.00
2019-06-07T11:55:55.581Z,3.60
2019-06-07T12:00:57.153Z,3.30
2019-06-07T12:03:27.285Z,4.12
2019-06-07T12:05:59.055Z,3.42
2019-06-07T12:08:34.896Z,2.95
2019-06-07T12:13:36.746Z,3.80
2019-06-07T12:16:21.991Z,3.52
2019-06-07T12:19:01.224Z,2.85
2019-06-07T12:21:33.546Z,2.95
2019-06-07T12:24:03.034Z,3.27
2019-06-07T12:26:32.049Z,2.90
2019-06-07T12:29:01.845Z,3.47
2019-06-07T12:31:31.120Z,3.80
2019-06-07T12:34:15.493Z,3.50
2019-06-07T12:39:13.910Z,2.98
2019-06-07T12:43:33.980Z,3.00
2019-06-07T12:46:03.256Z,2.98
2019-06-07T12:48:32.604Z,2.87
2019-06-07T12:51:02.483Z,3.20
2019-06-07T12:53:31.586Z,3.10
2019-06-07T12:58:36.040Z,2.65
2019-06-07T13:01:00.719Z,3.10
2019-06-07T13:05:57.984Z,3.05
2019-06-07T13:08:28.198Z,2.90
2019-06-07T13:11:13.605Z,2.85
2019-06-07T13:13:28.702Z,3.10
2019-06-07T13:18:26.120Z,2.70
2019-06-07T13:20:55.601Z,2.87
2019-06-07T13:23:24.777Z,3.05
2019-06-07T13:25:54.134Z,2.70
2019-06-07T13:28:24.634Z,2.75
2019-06-07T13:30:53.709Z,2.80
2019-06-07T13:35:52.714Z,3.17
2019-06-07T13:40:56.740Z,2.72
2019-06-07T13:43:25.955Z,2.90
2019-06-07T13:45:54.943Z,2.72
2019-06-07T13:48:25.347Z,2.62
2019-06-07T13:50:54.577Z,2.80
2019-06-07T13:53:25.032Z,2.67
2019-06-07T13:55:53.948Z,2.50
2019-06-07T13:58:24.145Z,3.00
2019-06-07T14:00:53.463Z,2.65
2019-06-07T14:03:26.800Z,2.75
2019-06-07T14:05:53.656Z,2.58
2019-06-07T14:10:52.054Z,2.30
2019-06-07T14:13:21.556Z,3.02
2019-06-07T14:15:50.719Z,2.83
2019-06-07T14:18:20.416Z,2.70
2019-06-07T14:20:49.420Z,2.85
2019-06-07T14:23:18.605Z,2.52
2019-06-07T14:28:15.977Z,3.17
2019-06-07T14:30:44.969Z,2.85
2019-06-07T14:33:14.014Z,2.62
2019-06-07T14:35:43.118Z,2.77
2019-06-07T14:38:12.379Z,2.95
2019-06-07T14:40:41.532Z,2.45
2019-06-07T14:43:10.528Z,2.87
2019-06-07T14:45:39.552Z,2.65
2019-06-07T14:48:08.647Z,2.75
2019-06-07T14:50:38.553Z,2.70
2019-06-07T14:53:07.454Z,2.67
2019-06-07T14:55:36.493Z,2.65
2019-06-07T14:58:05.742Z,2.20
2019-06-07T15:00:53.460Z,2.77
2019-06-07T15:03:22.559Z,2.72
2019-06-07T15:05:51.617Z,2.75
2019-06-07T15:08:20.608Z,2.60
2019-06-07T15:10:50.011Z,2.62
2019-06-07T15:13:19.208Z,2.67
2019-06-07T15:15:52.791Z,2.62
2019-06-07T15:18:21.734Z,2.60
2019-06-07T15:23:19.914Z,2.35
2019-06-07T15:25:49.163Z,2.98
2019-06-07T15:28:17.937Z,2.58
2019-06-07T15:30:46.904Z,2.75
2019-06-07T15:33:15.711Z,2.98
2019-06-07T15:35:44.836Z,2.50
2019-06-07T15:38:13.764Z,2.67
2019-06-07T15:43:11.114Z,2.70
2019-06-07T15:45:40.098Z,2.60
2019-06-07T15:48:08.952Z,2.27
2019-06-07T15:50:38.375Z,2.83
2019-06-07T15:53:07.608Z,2.60
2019-06-07T15:55:41.068Z,2.90
2019-06-07T15:58:07.991Z,2.92
2019-06-07T16:00:37.423Z,2.50
2019-06-07T16:03:06.653Z,2.80
2019-06-07T16:08:06.026Z,2.55
2019-06-07T16:10:34.998Z,3.17
2019-06-07T16:13:04.184Z,3.40
2019-06-07T16:15:34.745Z,3.00
2019-06-07T16:18:04.143Z,3.15
2019-06-07T16:20:35.267Z,3.05
2019-06-07T16:23:04.750Z,2.67
2019-06-07T16:28:03.481Z,2.90
2019-06-07T16:30:32.528Z,2.87
2019-06-07T16:33:01.476Z,2.80
2019-06-07T16:40:28.077Z,2.80
2019-06-07T16:43:16.121Z,2.80
2019-06-07T16:45:34.314Z,2.52
2019-06-07T16:48:03.931Z,2.60
2019-06-07T16:50:33.026Z,2.75
2019-06-07T16:53:02.485Z,3.22
2019-06-07T16:55:31.478Z,3.22
2019-06-07T16:58:00.428Z,3.35
2019-06-07T17:00:29.578Z,3.22
2019-06-07T17:02:58.667Z,3.62
2019-06-07T17:05:27.974Z,3.30
2019-06-07T17:07:56.981Z,3.87
2019-06-07T17:10:26.021Z,3.40
2019-06-07T17:12:54.989Z,3.35
2019-06-07T17:15:24.069Z,3.00
2019-06-07T17:18:54.034Z,2.90
2019-06-07T17:21:23.131Z,2.40
2019-06-07T17:23:52.313Z,2.40
2019-06-07T17:26:21.308Z,2.47
2019-06-07T17:28:50.188Z,2.37
2019-06-07T17:32:55.193Z,2.02
2019-06-07T17:37:46.328Z,2.35
2019-06-07T17:40:16.721Z,2.35
2019-06-07T17:45:15.576Z,1.52
2019-06-07T17:47:45.940Z,1.98
2019-06-07T17:50:16.563Z,1.85
2019-06-07T17:52:45.951Z,1.80
2019-06-07T17:55:15.986Z,1.62
2019-06-07T17:57:46.395Z,1.70
2019-06-07T18:00:33.468Z,1.27
2019-06-07T18:02:48.779Z,1.62
2019-06-07T18:05:17.864Z,1.55
2019-06-07T18:07:49.765Z,1.00
2019-06-07T18:10:35.599Z,1.20
2019-06-07T18:13:05.192Z,1.27
2019-06-07T18:15:41.419Z,1.65
2019-06-07T18:18:11.535Z,1.27
2019-06-07T18:20:41.119Z,1.30
2019-06-07T18:23:10.914Z,1.10
2019-06-07T18:25:40.296Z,1.07
2019-06-07T18:28:09.979Z,1.30
2019-06-07T18:30:39.478Z,1.40
2019-06-07T18:33:08.593Z,1.17
2019-06-07T18:35:37.559Z,1.30
2019-06-07T18:38:06.515Z,1.50
2019-06-07T18:40:35.576Z,1.30
2019-06-07T18:43:07.136Z,1.30
2019-06-07T18:45:38.345Z,1.10
2019-06-07T18:48:07.579Z,1.00
2019-06-07T18:53:05.437Z,1.07
2019-06-07T18:55:34.819Z,0.80
2019-06-07T18:58:04.159Z,0.85
2019-06-07T19:00:36.644Z,1.20
2019-06-07T19:03:06.577Z,0.95
2019-06-07T19:05:36.521Z,0.78
2019-06-07T19:08:15.547Z,0.90
2019-06-07T19:13:27.510Z,0.68
2019-06-07T19:15:57.692Z,0.90
2019-06-07T19:18:26.773Z,0.90
2019-06-07T19:23:25.742Z,1.10
2019-06-07T19:25:56.350Z,0.95
2019-06-07T19:28:25.896Z,0.68
2019-06-07T19:30:59.334Z,0.72
2019-06-07T19:33:28.465Z,0.72
2019-06-07T19:35:57.776Z,1.45
2019-06-07T19:38:27.083Z,1.32
2019-06-07T19:40:56.489Z,1.05
2019-06-07T19:43:25.793Z,1.05
2019-06-07T19:45:56.175Z,1.15
2019-06-07T19:48:26.978Z,1.30
2019-06-07T19:50:56.905Z,2.08
2019-06-07T19:53:26.100Z,1.50
2019-06-07T19:55:55.314Z,1.07
2019-06-07T19:58:24.762Z,1.10
2019-06-07T20:00:57.602Z,0.90
2019-06-07T20:03:26.747Z,0.90
2019-06-07T20:05:56.098Z,0.85
2019-06-07T20:08:27.750Z,1.05
2019-06-07T20:13:26.793Z,1.00
2019-06-07T20:18:27.777Z,0.90
2019-06-07T20:20:56.483Z,0.98
2019-06-07T20:23:32.484Z,1.07
2019-06-07T20:26:02.497Z,0.90
2019-06-07T20:31:05.933Z,1.10
2019-06-07T20:33:35.515Z,0.82
2019-06-07T20:36:04.869Z,0.80
2019-06-07T20:38:34.526Z,0.90
2019-06-07T20:41:03.565Z,0.80
2019-06-07T20:43:32.519Z,1.02
2019-06-07T20:46:08.211Z,0.70
2019-06-07T20:48:38.193Z,0.75
2019-06-07T20:51:08.719Z,0.70
2019-06-07T20:53:38.030Z,0.57
2019-06-07T20:56:07.070Z,0.80
2019-06-07T20:58:36.503Z,0.80
2019-06-07T21:01:06.941Z,0.70
2019-06-07T21:03:36.250Z,0.60
2019-06-07T21:06:07.497Z,0.80
2019-06-07T21:11:07.768Z,0.60
2019-06-07T21:13:37.161Z,0.80
2019-06-07T21:16:08.266Z,0.55
2019-06-07T21:18:37.868Z,0.65
2019-06-07T21:21:08.473Z,0.78
2019-06-07T21:23:40.160Z,0.70
2019-06-07T21:26:11.071Z,0.80
2019-06-07T21:28:41.539Z,0.80
2019-06-07T21:31:12.370Z,1.50
2019-06-07T21:33:41.577Z,1.20
2019-06-07T21:36:11.785Z,0.90
2019-06-07T21:38:41.499Z,0.72
2019-06-07T21:41:10.685Z,0.78
2019-06-07T21:46:17.249Z,0.93
2019-06-07T21:48:40.498Z,1.07
2019-06-07T21:53:38.130Z,0.90
2019-06-07T21:56:08.884Z,0.70
2019-06-07T21:58:38.292Z,0.80
2019-06-07T22:01:31.501Z,0.70
2019-06-07T22:04:00.899Z,0.82
2019-06-07T22:06:30.004Z,0.90
2019-06-07T22:08:59.478Z,0.80
2019-06-07T22:11:28.750Z,1.00
2019-06-07T22:13:59.425Z,1.20
2019-06-07T22:16:29.557Z,0.80
2019-06-07T22:21:28.002Z,0.80
2019-06-07T22:23:57.009Z,1.05
2019-06-07T22:26:28.571Z,1.00
2019-06-07T22:28:57.585Z,1.00
2019-06-07T22:31:26.640Z,0.90
2019-06-07T22:36:24.121Z,1.10
2019-06-07T22:38:53.108Z,0.78
2019-06-07T22:41:22.103Z,0.90
2019-06-07T22:43:50.998Z,1.07
2019-06-07T22:46:35.909Z,1.25
2019-06-07T22:48:56.939Z,1.00
2019-06-07T22:51:26.131Z,1.10
2019-06-07T22:53:58.516Z,1.10
2019-06-07T22:56:42.586Z,1.00
2019-06-07T22:59:15.277Z,1.30
2019-06-07T23:04:16.470Z,1.75
2019-06-07T23:06:45.895Z,2.05
2019-06-07T23:09:14.973Z,1.65
2019-06-07T23:11:45.472Z,1.40
2019-06-07T23:14:15.398Z,1.20
2019-06-07T23:16:55.044Z,1.30
2019-06-07T23:19:16.220Z,1.90
2019-06-07T23:21:45.113Z,1.50
2019-06-07T23:24:14.186Z,1.17
2019-06-07T23:26:43.542Z,1.22
2019-06-07T23:29:12.557Z,0.98
2019-06-07T23:31:41.580Z,1.07
2019-06-07T23:34:10.632Z,1.00
2019-06-07T23:39:07.991Z,1.00
2019-06-07T23:41:37.336Z,0.90
2019-06-07T23:44:06.566Z,0.90
2019-06-07T23:46:35.589Z,1.15
2019-06-07T23:49:04.942Z,1.22
2019-06-07T23:51:34.061Z,1.00
2019-06-07T23:54:03.740Z,1.00
2019-06-07T23:56:32.896Z,0.95
2019-06-07T23:59:01.989Z,0.78
